RYR3ED LIBP-LIML
Flight info
| Callsign | RYR3ED |
|---|---|
| Flight time | N/A |
| Altitude | 30000 |
| Route | OTRET DCT GOTMO DCT LOMED DCT RUXOL DCT KALIK |
| Aircraft | B38M/M-SDE1FGHILORVWXY/HB1 |
Departure
| Time | 2026-04-15 12:15 |
|---|---|
| Airport | Abruzzo Airport (LIBP) |
Arrival
| Time | N/A |
|---|---|
| Airport | Milano Linate Airport (LIML) |
| Time | Latitude | Longitude | Altitude | Speed | Heading |
|---|---|---|---|---|---|
| 2026-04-15 11:51 | 42.43066 | 14.18752 | 48 ft | 0 kts | 128° |
| 2026-04-15 12:04 | 42.43066 | 14.18751 | 50 ft | 1 kts | 128° |
| 2026-04-15 12:05 | 42.43077 | 14.18735 | 50 ft | 2 kts | 137° |
| 2026-04-15 12:05 | 42.43090 | 14.18722 | 49 ft | 2 kts | 154° |
| 2026-04-15 12:05 | 42.43106 | 14.18716 | 49 ft | 2 kts | 182° |
| 2026-04-15 12:05 | 42.43122 | 14.18721 | 45 ft | 2 kts | 208° |
| 2026-04-15 12:06 | 42.43131 | 14.18728 | 49 ft | 1 kts | 216° |
| 2026-04-15 12:06 | 42.43131 | 14.18729 | 49 ft | 0 kts | 216° |
| 2026-04-15 12:09 | 42.43129 | 14.18727 | 50 ft | 2 kts | 216° |
| 2026-04-15 12:09 | 42.43112 | 14.18710 | 48 ft | 5 kts | 216° |
| 2026-04-15 12:10 | 42.43062 | 14.18660 | 50 ft | 10 kts | 217° |
| 2026-04-15 12:10 | 42.43025 | 14.18595 | 50 ft | 10 kts | 256° |
| 2026-04-15 12:10 | 42.43011 | 14.18491 | 50 ft | 11 kts | 256° |
| 2026-04-15 12:10 | 42.42956 | 14.18408 | 50 ft | 13 kts | 217° |
| 2026-04-15 12:11 | 42.42875 | 14.18325 | 50 ft | 16 kts | 218° |
| 2026-04-15 12:11 | 42.42780 | 14.18227 | 48 ft | 18 kts | 217° |
| 2026-04-15 12:11 | 42.42671 | 14.18115 | 50 ft | 21 kts | 217° |
| 2026-04-15 12:11 | 42.42552 | 14.17992 | 50 ft | 23 kts | 217° |
| 2026-04-15 12:12 | 42.42420 | 14.17853 | 50 ft | 25 kts | 217° |
| 2026-04-15 12:12 | 42.42306 | 14.17737 | 50 ft | 9 kts | 216° |
| 2026-04-15 12:12 | 42.42272 | 14.17663 | 50 ft | 11 kts | 262° |
| 2026-04-15 12:12 | 42.42270 | 14.17620 | 50 ft | 0 kts | 266° |
| 2026-04-15 12:13 | 42.42270 | 14.17616 | 50 ft | 2 kts | 266° |
| 2026-04-15 12:13 | 42.42267 | 14.17567 | 47 ft | 8 kts | 266° |
| 2026-04-15 12:13 | 42.42282 | 14.17485 | 49 ft | 8 kts | 306° |
| 2026-04-15 12:14 | 42.42338 | 14.17480 | 49 ft | 10 kts | 31° |
| 2026-04-15 12:14 | 42.42402 | 14.17543 | 49 ft | 15 kts | 37° |
| 2026-04-15 12:14 | 42.42640 | 14.17792 | 50 ft | 84 kts | 37° |
| 2026-04-15 12:14 | 42.43312 | 14.18481 | 52 ft | 155 kts | 36° |
| 2026-04-15 12:15 | 42.44211 | 14.19460 | 608 ft | 171 kts | 38° |
| 2026-04-15 12:15 | 42.45175 | 14.20465 | 1575 ft | 178 kts | 36° |
| 2026-04-15 12:15 | 42.46174 | 14.21485 | 2579 ft | 181 kts | 37° |
| 2026-04-15 12:15 | 42.47247 | 14.22570 | 3301 ft | 200 kts | 37° |
| 2026-04-15 12:16 | 42.48488 | 14.23637 | 3941 ft | 224 kts | 30° |
| 2026-04-15 12:16 | 42.49963 | 14.24515 | 4790 ft | 235 kts | 22° |
| 2026-04-15 12:16 | 42.51602 | 14.24937 | 5621 ft | 254 kts | 0° |
| 2026-04-15 12:16 | 42.53369 | 14.24206 | 5797 ft | 277 kts | 328° |
| 2026-04-15 12:17 | 42.54759 | 14.22403 | 5908 ft | 283 kts | 310° |
| 2026-04-15 12:17 | 42.56041 | 14.20352 | 6007 ft | 287 kts | 313° |
| 2026-04-15 12:17 | 42.57418 | 14.18375 | 6476 ft | 286 kts | 315° |
| 2026-04-15 12:17 | 42.58821 | 14.16452 | 7498 ft | 289 kts | 317° |
| 2026-04-15 12:18 | 42.60277 | 14.14516 | 8427 ft | 296 kts | 318° |
| 2026-04-15 12:18 | 42.61772 | 14.12559 | 9404 ft | 300 kts | 319° |
| 2026-04-15 12:18 | 42.63297 | 14.10581 | 10302 ft | 306 kts | 319° |
| 2026-04-15 12:18 | 42.64890 | 14.08530 | 10866 ft | 324 kts | 319° |
| 2026-04-15 12:19 | 42.66578 | 14.06360 | 11371 ft | 342 kts | 319° |